createdAt,value
2022-11-20T00:01:27.698Z,97982.91
2022-11-20T00:03:56.577Z,97988.34
2022-11-20T00:06:24.444Z,97983.78
2022-11-20T00:08:51.873Z,97982.84
2022-11-20T00:11:21.930Z,97982.03
2022-11-20T00:13:52.955Z,97992.09
2022-11-20T00:16:23.541Z,97986.31
2022-11-20T00:18:51.033Z,97985.28
2022-11-20T00:21:22.099Z,97982.22
2022-11-20T00:23:50.512Z,97981.72
2022-11-20T00:26:19.898Z,97990.88
2022-11-20T00:28:53.276Z,97983.75
2022-11-20T00:31:20.613Z,97983.78
2022-11-20T00:33:47.757Z,97986.53
2022-11-20T00:36:18.348Z,97988.34
2022-11-20T00:38:46.052Z,97978.75
2022-11-20T00:41:16.511Z,97970.56
2022-11-20T00:43:43.970Z,97968.53
2022-11-20T00:46:16.141Z,97971.00
2022-11-20T00:48:43.357Z,97974.63
2022-11-20T00:51:13.256Z,97969.13
2022-11-20T00:53:39.764Z,97963.25
2022-11-20T00:56:11.492Z,97961.06
2022-11-20T00:58:41.681Z,97964.56
2022-11-20T01:01:13.692Z,97963.22
2022-11-20T01:03:44.796Z,97964.22
2022-11-20T01:06:15.492Z,97964.31
2022-11-20T01:08:42.803Z,97969.41
2022-11-20T01:11:19.849Z,97971.44
2022-11-20T01:13:48.944Z,97962.25
2022-11-20T01:16:21.132Z,97965.56
2022-11-20T01:18:51.636Z,97966.66
2022-11-20T01:21:22.821Z,97966.38
2022-11-20T01:23:50.704Z,97976.22
2022-11-20T01:26:22.167Z,97966.38
2022-11-20T01:28:49.832Z,97976.13
2022-11-20T01:31:28.721Z,97967.66
2022-11-20T01:33:59.152Z,97965.69
2022-11-20T01:36:30.029Z,97970.78
2022-11-20T01:39:00.664Z,97968.50
2022-11-20T01:41:50.001Z,97964.06
2022-11-20T01:44:21.743Z,97961.38
2022-11-20T01:47:02.720Z,97953.91
2022-11-20T01:49:43.033Z,97953.66
2022-11-20T01:52:19.812Z,97950.69
2022-11-20T01:54:55.692Z,97953.03
2022-11-20T01:57:27.690Z,97946.72
2022-11-20T02:00:05.020Z,97950.56
2022-11-20T02:02:31.720Z,97933.81
2022-11-20T02:05:10.273Z,97937.75
2022-11-20T02:07:37.642Z,97939.13
2022-11-20T02:10:04.622Z,97938.22
2022-11-20T02:12:49.674Z,97940.91
2022-11-20T02:15:16.280Z,97931.25
2022-11-20T02:17:42.777Z,97934.72
2022-11-20T02:20:10.273Z,97930.03
2022-11-20T02:22:54.813Z,97933.22
2022-11-20T02:25:22.738Z,97934.31
2022-11-20T02:27:49.538Z,97931.50
2022-11-20T02:30:16.079Z,97926.50
2022-11-20T02:32:42.719Z,97925.47
2022-11-20T02:35:19.724Z,97920.41
2022-11-20T02:37:51.760Z,97924.75
2022-11-20T02:40:18.387Z,97933.06
2022-11-20T02:42:44.891Z,97925.06
2022-11-20T02:45:12.331Z,97934.97
2022-11-20T02:47:38.835Z,97927.13
2022-11-20T02:50:07.311Z,97924.53
2022-11-20T02:52:33.833Z,97922.09
2022-11-20T02:55:00.477Z,97906.66
2022-11-20T02:57:27.024Z,97914.22
2022-11-20T02:59:53.511Z,97918.50
2022-11-20T03:02:20.199Z,97919.88
2022-11-20T03:04:46.721Z,97911.88
2022-11-20T03:07:13.341Z,97907.66
2022-11-20T03:09:39.786Z,97906.31
2022-11-20T03:12:06.530Z,97904.28
2022-11-20T03:14:33.033Z,97903.72
2022-11-20T03:16:59.559Z,97895.25
2022-11-20T03:19:26.004Z,97883.63
2022-11-20T03:21:52.452Z,97890.22
2022-11-20T03:24:19.029Z,97897.81
2022-11-20T03:26:45.493Z,97899.16
2022-11-20T03:29:12.118Z,97899.00
2022-11-20T03:31:41.403Z,97900.22
2022-11-20T03:34:11.592Z,97899.78
2022-11-20T03:36:43.484Z,97893.19
2022-11-20T03:39:10.650Z,97896.81
2022-11-20T03:41:40.581Z,97905.03
2022-11-20T03:44:10.977Z,97903.50
2022-11-20T03:46:38.417Z,97901.91
2022-11-20T03:49:05.520Z,97896.19
2022-11-20T03:51:35.738Z,97895.63
2022-11-20T03:54:08.466Z,97883.03
2022-11-20T03:56:38.788Z,97884.19
2022-11-20T03:59:06.063Z,97877.59
2022-11-20T04:01:36.653Z,97875.53
2022-11-20T04:04:04.300Z,97888.00
2022-11-20T04:06:35.999Z,97883.63
2022-11-20T04:09:03.222Z,97874.28
2022-11-20T04:11:36.571Z,97875.50
2022-11-20T04:14:06.721Z,97870.69
2022-11-20T04:16:36.850Z,97866.56
2022-11-20T04:19:07.499Z,97869.25
2022-11-20T04:21:34.169Z,97866.28
2022-11-20T04:24:00.684Z,97877.44
2022-11-20T04:26:29.953Z,97857.00
2022-11-20T04:28:58.326Z,97854.41
2022-11-20T04:31:31.651Z,97854.13
2022-11-20T04:34:07.081Z,97863.97
2022-11-20T04:36:34.886Z,97865.84
2022-11-20T04:39:06.737Z,97868.19
2022-11-20T04:41:37.155Z,97876.47
2022-11-20T04:44:06.588Z,97874.72
2022-11-20T04:46:40.365Z,97878.28
2022-11-20T04:49:08.042Z,97871.13
2022-11-20T04:51:35.779Z,97873.66
2022-11-20T04:54:02.592Z,97873.19
2022-11-20T04:56:29.138Z,97869.63
2022-11-20T04:58:55.623Z,97875.88
2022-11-20T05:01:25.251Z,97864.56
2022-11-20T05:03:52.320Z,97856.72
2022-11-20T05:06:22.030Z,97858.53
2022-11-20T05:08:48.819Z,97860.88
2022-11-20T05:11:19.865Z,97865.75
2022-11-20T05:13:47.099Z,97861.81
2022-11-20T05:16:17.908Z,97853.25
2022-11-20T05:18:44.831Z,97864.22
2022-11-20T05:21:13.590Z,97854.41
2022-11-20T05:23:40.830Z,97860.78
2022-11-20T05:26:15.573Z,97858.75
2022-11-20T05:28:42.113Z,97865.78
2022-11-20T05:31:11.929Z,97863.13
2022-11-20T05:33:41.823Z,97854.97
2022-11-20T05:36:09.281Z,97860.19
2022-11-20T05:38:36.076Z,97860.44
2022-11-20T05:41:13.168Z,97860.13
2022-11-20T05:43:42.529Z,97862.00
2022-11-20T05:46:13.486Z,97858.28
2022-11-20T05:48:42.383Z,97868.91
2022-11-20T05:51:13.267Z,97862.34
2022-11-20T05:53:45.174Z,97852.16
2022-11-20T05:56:18.688Z,97855.66
2022-11-20T05:58:46.654Z,97856.38
2022-11-20T06:01:21.793Z,97854.28
2022-11-20T06:03:51.299Z,97858.13
2022-11-20T06:06:19.556Z,97854.31
2022-11-20T06:08:47.132Z,97859.00
2022-11-20T06:11:15.935Z,97862.06
2022-11-20T06:13:43.086Z,97860.94
2022-11-20T06:16:12.182Z,97858.84
2022-11-20T06:18:39.814Z,97863.56
2022-11-20T06:21:16.522Z,97867.75
2022-11-20T06:23:43.924Z,97872.44
2022-11-20T06:26:22.149Z,97878.69
2022-11-20T06:28:49.181Z,97875.78
2022-11-20T06:31:18.594Z,97871.78
2022-11-20T06:33:46.109Z,97866.72
2022-11-20T06:36:16.206Z,97862.91
2022-11-20T06:38:43.181Z,97868.38
2022-11-20T06:41:17.840Z,97872.72
2022-11-20T06:43:44.568Z,97867.22
2022-11-20T06:46:13.800Z,97873.81
2022-11-20T06:48:41.199Z,97868.63
2022-11-20T06:51:09.298Z,97874.66
2022-11-20T06:53:36.796Z,97872.75
2022-11-20T06:56:04.079Z,97875.66
2022-11-20T06:58:33.854Z,97876.47
2022-11-20T07:01:06.939Z,97877.91
2022-11-20T07:03:33.538Z,97884.84
2022-11-20T07:06:02.158Z,97882.75
2022-11-20T07:08:29.537Z,97881.88
2022-11-20T07:11:02.291Z,97880.94
2022-11-20T07:13:30.104Z,97881.13
2022-11-20T07:16:05.582Z,97884.66
2022-11-20T07:18:32.196Z,97889.72
2022-11-20T07:21:08.365Z,97894.44
2022-11-20T07:23:35.356Z,97891.50
2022-11-20T07:26:10.939Z,97897.13
2022-11-20T07:28:38.534Z,97887.56
2022-11-20T07:31:05.891Z,97893.56
2022-11-20T07:33:32.561Z,97891.19
2022-11-20T07:36:02.946Z,97897.19
2022-11-20T07:38:29.901Z,97893.53
2022-11-20T07:40:58.672Z,97891.84
2022-11-20T07:43:26.115Z,97893.16
2022-11-20T07:45:52.633Z,97886.28
2022-11-20T07:48:19.074Z,97893.69
2022-11-20T07:50:45.592Z,97892.97
2022-11-20T07:53:13.645Z,97909.66
2022-11-20T07:55:40.480Z,97909.88
2022-11-20T07:58:07.007Z,97909.88
2022-11-20T08:00:33.561Z,97915.88
2022-11-20T08:03:00.062Z,97912.94
2022-11-20T08:05:26.583Z,97909.06
2022-11-20T08:07:53.018Z,97920.44
2022-11-20T08:10:19.648Z,97919.88
2022-11-20T08:13:10.690Z,97928.88
2022-11-20T08:15:39.836Z,97918.47
2022-11-20T08:18:30.680Z,97920.44
2022-11-20T08:20:58.540Z,97922.25
2022-11-20T08:23:25.162Z,97923.53
2022-11-20T08:25:52.139Z,97920.16
2022-11-20T08:28:21.876Z,97922.91
2022-11-20T08:30:50.715Z,97922.25
2022-11-20T08:33:18.244Z,97909.72
2022-11-20T08:35:44.842Z,97915.84
2022-11-20T08:38:11.379Z,97910.88
2022-11-20T08:40:37.839Z,97920.13
2022-11-20T08:43:05.179Z,97931.81
2022-11-20T08:45:34.553Z,97919.97
2022-11-20T08:48:05.392Z,97919.00
2022-11-20T08:50:33.794Z,97911.09
2022-11-20T08:53:07.276Z,97915.84
2022-11-20T08:55:36.396Z,97913.94
2022-11-20T08:58:06.573Z,97910.13
2022-11-20T09:00:34.951Z,97914.25
2022-11-20T09:03:02.686Z,97907.44
2022-11-20T09:05:30.028Z,97910.16
2022-11-20T09:08:00.438Z,97906.97
2022-11-20T09:10:28.275Z,97911.97
2022-11-20T09:12:58.562Z,97921.06
2022-11-20T09:15:27.041Z,97915.88
2022-11-20T09:17:59.319Z,97919.63
2022-11-20T09:20:27.753Z,97914.56
2022-11-20T09:22:54.256Z,97914.47
2022-11-20T09:25:20.914Z,97904.63
2022-11-20T09:27:47.509Z,97902.94
2022-11-20T09:30:15.768Z,97908.00
2022-11-20T09:32:43.736Z,97911.97
2022-11-20T09:35:11.326Z,97913.38
2022-11-20T09:37:37.887Z,97921.13
2022-11-20T09:40:05.091Z,97920.56
2022-11-20T09:43:13.282Z,97926.44
2022-11-20T09:46:30.040Z,97910.75
2022-11-20T09:49:19.095Z,97923.44
2022-11-20T09:52:28.924Z,97916.25
2022-11-20T09:54:56.094Z,97915.91
2022-11-20T09:57:35.578Z,97915.00
2022-11-20T10:00:06.518Z,97908.88
2022-11-20T10:03:12.744Z,97906.25
2022-11-20T10:05:47.337Z,97905.31
2022-11-20T10:08:31.447Z,97900.94
2022-11-20T10:11:31.341Z,97898.16
2022-11-20T10:14:27.171Z,97894.38
2022-11-20T10:17:33.732Z,97886.81
2022-11-20T10:20:25.245Z,97880.09
2022-11-20T10:23:30.763Z,97881.19
2022-11-20T10:26:19.388Z,97874.13
2022-11-20T10:29:12.476Z,97871.44
2022-11-20T10:31:46.858Z,97866.38
2022-11-20T10:34:27.443Z,97867.06
2022-11-20T10:37:04.520Z,97863.16
2022-11-20T10:40:18.568Z,97870.06
2022-11-20T10:42:57.188Z,97856.44
2022-11-20T10:45:26.798Z,97861.59
2022-11-20T10:48:08.151Z,97853.50
2022-11-20T10:50:41.149Z,97852.97
2022-11-20T10:53:31.636Z,97857.22
2022-11-20T10:56:21.231Z,97851.56
2022-11-20T10:59:36.272Z,97850.22
2022-11-20T11:02:03.530Z,97840.78
2022-11-20T11:04:47.790Z,97838.94
2022-11-20T11:07:28.711Z,97841.78
2022-11-20T11:09:57.426Z,97837.72
2022-11-20T11:12:28.811Z,97845.13
2022-11-20T11:14:58.513Z,97842.56
2022-11-20T11:17:32.867Z,97836.38
2022-11-20T11:20:22.090Z,97837.72
2022-11-20T11:22:51.491Z,97837.63
2022-11-20T11:25:29.910Z,97828.63
2022-11-20T11:28:01.179Z,97828.47
2022-11-20T11:30:31.193Z,97818.41
2022-11-20T11:33:11.916Z,97822.34
2022-11-20T11:35:54.833Z,97821.59
2022-11-20T11:38:29.573Z,97815.03
2022-11-20T11:40:58.378Z,97809.63
2022-11-20T11:43:48.081Z,97814.69
2022-11-20T11:46:30.012Z,97804.78
2022-11-20T11:49:18.080Z,97794.81
2022-11-20T11:52:06.242Z,97796.44
2022-11-20T11:54:58.001Z,97788.66
2022-11-20T11:57:42.537Z,97789.50
2022-11-20T12:00:17.702Z,97780.53
2022-11-20T12:02:47.287Z,97775.78
2022-11-20T12:05:24.426Z,97777.00
2022-11-20T12:08:12.403Z,97782.06
2022-11-20T12:11:02.887Z,97772.91
2022-11-20T12:13:35.412Z,97777.06
2022-11-20T12:16:04.960Z,97766.53
2022-11-20T12:18:32.412Z,97772.69
2022-11-20T12:22:10.995Z,97764.81
2022-11-20T12:25:08.389Z,97763.59
2022-11-20T12:28:08.703Z,97761.09
2022-11-20T12:30:50.303Z,97760.31
2022-11-20T12:33:55.828Z,97767.16
2022-11-20T12:36:57.544Z,97754.13
2022-11-20T12:39:36.461Z,97752.34
2022-11-20T12:42:42.886Z,97750.34
2022-11-20T12:45:55.378Z,97748.06
2022-11-20T12:48:56.376Z,97741.81
2022-11-20T12:52:01.353Z,97739.34
2022-11-20T12:55:00.373Z,97740.06
2022-11-20T12:57:50.343Z,97731.09
2022-11-20T13:00:22.822Z,97729.25
2022-11-20T13:03:22.954Z,97731.69
2022-11-20T13:05:58.542Z,97724.59
2022-11-20T13:08:35.138Z,97724.78
2022-11-20T13:11:08.281Z,97714.22
2022-11-20T13:14:07.037Z,97719.06
2022-11-20T13:16:39.536Z,97712.19
2022-11-20T13:19:13.080Z,97699.38
2022-11-20T13:21:57.524Z,97697.25
2022-11-20T13:24:27.651Z,97689.41
2022-11-20T13:27:09.403Z,97689.22
2022-11-20T13:29:39.045Z,97671.31
2022-11-20T13:32:16.893Z,97677.00
2022-11-20T13:34:56.745Z,97679.06
2022-11-20T13:37:37.723Z,97678.22
2022-11-20T13:40:11.204Z,97662.28
2022-11-20T13:42:45.793Z,97674.38
2022-11-20T13:45:31.586Z,97661.31
2022-11-20T13:48:04.095Z,97664.22
2022-11-20T13:51:04.335Z,97654.47
2022-11-20T13:54:07.744Z,97653.72
2022-11-20T13:57:22.911Z,97646.97
2022-11-20T14:00:13.116Z,97650.03
2022-11-20T14:02:41.177Z,97651.88
2022-11-20T14:05:23.892Z,97644.88
2022-11-20T14:07:53.721Z,97639.28
2022-11-20T14:10:31.638Z,97631.97
2022-11-20T14:12:59.292Z,97632.28
2022-11-20T14:15:35.166Z,97627.00
2022-11-20T14:18:15.549Z,97622.44
2022-11-20T14:20:44.127Z,97613.59
2022-11-20T14:23:11.856Z,97617.97
2022-11-20T14:25:43.903Z,97607.13
2022-11-20T14:28:31.640Z,97611.22
2022-11-20T14:30:58.809Z,97601.22
2022-11-20T14:33:28.565Z,97598.78
2022-11-20T14:35:58.490Z,97601.50
2022-11-20T14:38:32.190Z,97594.69
2022-11-20T14:41:21.064Z,97587.66
2022-11-20T14:44:02.894Z,97587.47
2022-11-20T14:46:33.165Z,97581.13
2022-11-20T14:49:04.077Z,97575.91
2022-11-20T14:51:44.150Z,97574.59
2022-11-20T14:54:26.485Z,97568.72
2022-11-20T14:57:04.796Z,97570.53
2022-11-20T14:59:35.946Z,97563.06
2022-11-20T15:02:07.507Z,97563.78
2022-11-20T15:04:34.056Z,97563.84
2022-11-20T15:07:01.820Z,97561.56
2022-11-20T15:09:28.373Z,97560.53
2022-11-20T15:12:04.801Z,97554.56
2022-11-20T15:14:33.546Z,97556.03
2022-11-20T15:17:00.461Z,97556.03
2022-11-20T15:19:27.906Z,97548.63
2022-11-20T15:21:54.448Z,97549.00
2022-11-20T15:24:22.101Z,97541.69
2022-11-20T15:26:48.880Z,97542.34
2022-11-20T15:29:21.733Z,97536.09
2022-11-20T15:31:48.204Z,97534.38
2022-11-20T15:34:16.633Z,97529.72
2022-11-20T15:36:44.873Z,97521.41
2022-11-20T15:39:12.341Z,97517.84
2022-11-20T15:41:39.891Z,97511.69
2022-11-20T15:44:06.613Z,97509.25
2022-11-20T15:46:39.463Z,97508.97
2022-11-20T15:49:06.778Z,97508.78
2022-11-20T15:51:37.220Z,97512.75
2022-11-20T15:54:22.500Z,97507.84
2022-11-20T15:56:53.165Z,97503.38
2022-11-20T15:59:19.728Z,97506.06
2022-11-20T16:01:46.587Z,97498.81
2022-11-20T16:04:16.545Z,97496.69
2022-11-20T16:06:43.696Z,97495.75
2022-11-20T16:09:10.591Z,97495.56
2022-11-20T16:11:37.534Z,97488.38
2022-11-20T16:14:23.758Z,97489.56
2022-11-20T16:16:50.987Z,97490.84
2022-11-20T16:19:18.945Z,97482.47
2022-11-20T16:21:45.432Z,97490.69
2022-11-20T16:24:15.283Z,97489.75
2022-11-20T16:26:42.002Z,97485.81
2022-11-20T16:29:09.267Z,97491.72
2022-11-20T16:31:35.936Z,97486.16
2022-11-20T16:34:12.044Z,97473.56
2022-11-20T16:36:44.483Z,97467.63
2022-11-20T16:39:12.173Z,97459.88
2022-11-20T16:41:39.289Z,97459.88
2022-11-20T16:44:11.588Z,97455.88
2022-11-20T16:46:38.812Z,97457.78
2022-11-20T16:49:11.911Z,97459.78
2022-11-20T16:51:38.361Z,97460.94
2022-11-20T16:54:07.958Z,97459.34
2022-11-20T16:56:35.146Z,97444.09
2022-11-20T16:59:02.627Z,97444.28
2022-11-20T17:01:30.352Z,97433.56
2022-11-20T17:04:04.286Z,97434.00
2022-11-20T17:06:36.691Z,97425.56
2022-11-20T17:09:04.379Z,97424.63
2022-11-20T17:11:31.021Z,97426.84
2022-11-20T17:14:07.231Z,97415.00
2022-11-20T17:16:36.273Z,97418.56
2022-11-20T17:19:05.233Z,97411.41
2022-11-20T17:21:36.009Z,97416.09
2022-11-20T17:24:06.857Z,97414.59
2022-11-20T17:26:35.076Z,97408.72
2022-11-20T17:29:15.411Z,97403.81
2022-11-20T17:31:43.323Z,97398.28
2022-11-20T17:34:14.923Z,97392.94
2022-11-20T17:36:45.441Z,97390.59
2022-11-20T17:39:15.210Z,97391.94
2022-11-20T17:41:41.871Z,97388.19
2022-11-20T17:44:13.031Z,97382.44
2022-11-20T17:46:39.820Z,97386.66
2022-11-20T17:49:06.751Z,97379.22
2022-11-20T17:51:37.772Z,97368.44
2022-11-20T17:54:07.653Z,97360.06
2022-11-20T17:56:54.275Z,97356.22
2022-11-20T17:59:22.200Z,97341.25
2022-11-20T18:01:49.202Z,97339.19
2022-11-20T18:04:16.611Z,97332.81
2022-11-20T18:06:44.074Z,97332.31
2022-11-20T18:09:12.029Z,97322.81
2022-11-20T18:11:41.170Z,97323.00
2022-11-20T18:14:28.857Z,97313.59
2022-11-20T18:16:59.575Z,97311.16
2022-11-20T18:19:38.753Z,97308.44
2022-11-20T18:22:08.862Z,97300.84
2022-11-20T18:24:37.108Z,97288.19
2022-11-20T18:27:05.624Z,97286.13
2022-11-20T18:29:32.170Z,97286.22
2022-11-20T18:32:00.480Z,97278.16
2022-11-20T18:34:27.846Z,97273.78
2022-11-20T18:36:54.312Z,97267.59
2022-11-20T18:39:21.092Z,97262.50
2022-11-20T18:42:06.463Z,97259.16
2022-11-20T18:44:51.303Z,97256.13
2022-11-20T18:47:25.758Z,97244.03
2022-11-20T18:49:55.029Z,97233.69
2022-11-20T18:52:29.332Z,97238.66
2022-11-20T18:54:56.677Z,97223.94
2022-11-20T18:57:26.985Z,97217.56
2022-11-20T18:59:55.925Z,97209.31
2022-11-20T19:02:23.246Z,97208.88
2022-11-20T19:04:49.816Z,97203.56
2022-11-20T19:07:17.467Z,97205.03
2022-11-20T19:09:49.165Z,97204.72
2022-11-20T19:12:16.562Z,97186.81
2022-11-20T19:14:43.214Z,97191.59
2022-11-20T19:17:11.300Z,97186.16
2022-11-20T19:19:37.825Z,97181.16
2022-11-20T19:22:04.491Z,97181.56
2022-11-20T19:24:31.419Z,97174.69
2022-11-20T19:26:58.103Z,97176.13
2022-11-20T19:29:25.604Z,97176.78
2022-11-20T19:31:52.649Z,97161.34
2022-11-20T19:34:19.180Z,97154.31
2022-11-20T19:36:46.493Z,97152.25
2022-11-20T19:39:13.377Z,97155.84
2022-11-20T19:41:41.364Z,97152.91
2022-11-20T19:44:12.432Z,97149.56
2022-11-20T19:46:40.819Z,97142.63
2022-11-20T19:49:10.402Z,97145.13
2022-11-20T19:51:43.482Z,97146.59
2022-11-20T19:54:10.037Z,97137.25
2022-11-20T19:56:36.618Z,97134.34
2022-11-20T19:59:03.228Z,97137.16
2022-11-20T20:01:31.361Z,97125.25
2022-11-20T20:04:05.299Z,97121.69
2022-11-20T20:06:34.840Z,97112.47
2022-11-20T20:09:06.089Z,97124.44
2022-11-20T20:11:35.196Z,97115.19
2022-11-20T20:14:13.679Z,97110.72
2022-11-20T20:16:41.576Z,97111.94
2022-11-20T20:19:11.233Z,97094.69
2022-11-20T20:21:37.726Z,97109.66
2022-11-20T20:24:04.782Z,97106.94
2022-11-20T20:26:33.159Z,97107.63
2022-11-20T20:29:01.946Z,97118.69
2022-11-20T20:31:31.888Z,97107.66
2022-11-20T20:33:58.702Z,97105.31
2022-11-20T20:36:26.077Z,97104.59
2022-11-20T20:38:59.413Z,97113.72
2022-11-20T20:41:26.235Z,97104.44
2022-11-20T20:44:12.097Z,97103.88
2022-11-20T20:46:39.965Z,97109.97
2022-11-20T20:49:07.357Z,97100.81
2022-11-20T20:51:34.521Z,97105.00
2022-11-20T20:54:01.306Z,97093.34
2022-11-20T20:56:27.825Z,97095.41
2022-11-20T20:58:54.328Z,97097.38
2022-11-20T21:01:22.672Z,97086.16
2022-11-20T21:03:49.217Z,97077.13
2022-11-20T21:06:15.900Z,97082.16
2022-11-20T21:08:44.428Z,97072.53
2022-11-20T21:11:14.793Z,97073.84
2022-11-20T21:13:43.899Z,97069.91
2022-11-20T21:16:12.136Z,97071.69
2022-11-20T21:18:38.867Z,97065.16
2022-11-20T21:21:30.928Z,97065.84
2022-11-20T21:23:57.527Z,97067.63
2022-11-20T21:26:24.231Z,97073.84
2022-11-20T21:28:50.801Z,97062.66
2022-11-20T21:31:28.375Z,97068.63
2022-11-20T21:33:56.826Z,97066.25
2022-11-20T21:36:27.736Z,97067.06
2022-11-20T21:38:56.296Z,97071.47
2022-11-20T21:41:24.812Z,97070.97
2022-11-20T21:44:23.681Z,97067.75
2022-11-20T21:46:42.880Z,97073.69
2022-11-20T21:49:10.940Z,97067.41
2022-11-20T21:51:37.661Z,97067.44
2022-11-20T21:54:04.272Z,97077.31
2022-11-20T21:56:30.791Z,97063.97
2022-11-20T21:58:58.083Z,97070.66
2022-11-20T22:01:30.466Z,97075.94
2022-11-20T22:04:02.646Z,97069.44
2022-11-20T22:06:34.321Z,97066.09
2022-11-20T22:09:03.062Z,97070.75
2022-11-20T22:11:30.242Z,97067.06
2022-11-20T22:14:15.597Z,97067.44
2022-11-20T22:16:42.174Z,97068.69
2022-11-20T22:19:09.202Z,97075.88
2022-11-20T22:21:38.401Z,97077.75
2022-11-20T22:24:05.082Z,97068.63
2022-11-20T22:26:39.984Z,97076.22
2022-11-20T22:29:12.276Z,97082.16
2022-11-20T22:31:38.729Z,97077.88
2022-11-20T22:34:05.248Z,97083.81
2022-11-20T22:36:32.516Z,97075.03
2022-11-20T22:39:02.542Z,97090.25
2022-11-20T22:41:30.041Z,97096.31
2022-11-20T22:43:59.152Z,97090.81
2022-11-20T22:46:28.683Z,97095.59
2022-11-20T22:49:02.283Z,97105.25
2022-11-20T22:51:32.707Z,97101.59
2022-11-20T22:53:59.989Z,97109.38
2022-11-20T22:56:26.609Z,97101.88
2022-11-20T22:58:54.702Z,97112.41
2022-11-20T23:01:31.349Z,97107.06
2022-11-20T23:03:59.930Z,97110.09
2022-11-20T23:06:27.878Z,97119.25
2022-11-20T23:08:55.544Z,97104.44
2022-11-20T23:11:28.492Z,97109.94
2022-11-20T23:14:11.421Z,97112.84
2022-11-20T23:16:37.951Z,97111.41
2022-11-20T23:19:08.959Z,97120.31
2022-11-20T23:21:38.097Z,97127.59
2022-11-20T23:24:06.495Z,97122.09
2022-11-20T23:26:36.445Z,97127.53
2022-11-20T23:29:03.838Z,97117.81
2022-11-20T23:31:33.336Z,97123.84
2022-11-20T23:34:00.141Z,97124.66
2022-11-20T23:36:27.092Z,97124.38
2022-11-20T23:38:53.650Z,97134.38
2022-11-20T23:41:20.118Z,97134.41
2022-11-20T23:43:46.608Z,97130.00
2022-11-20T23:46:16.492Z,97138.09
2022-11-20T23:48:45.075Z,97133.94
2022-11-20T23:51:12.110Z,97126.63
2022-11-20T23:53:38.671Z,97122.72
2022-11-20T23:56:06.149Z,97125.84
2022-11-20T23:58:38.019Z,97140.13
